Time;durP1;ratioP1;P1;durP2;ratioP2;P2;SDS_P1;SDS_P2;PMS_P1;PMS_P2;Temp;Humidity;BMP_temperature;BMP_pressure;BME280_temperature;BME280_humidity;BME280_pressure;Samples;Min_cycle;Max_cycle;Signal;HPM_P1;HPM_P2
2023/09/15 00:00:23;;;;;;;2.65;1.40;;;11.80;99.90;;;;;;5106284;27;20023;-80
2023/09/15 00:02:49;;;;;;;7.05;1.58;;;11.70;99.90;;;;;;5098037;28;20072;-81
2023/09/15 00:05:15;;;;;;;7.35;2.72;;;11.80;99.90;;;;;;5107404;28;20114;-81
2023/09/15 00:07:41;;;;;;;4.10;1.60;;;11.70;99.90;;;;;;5105943;28;20091;-81
2023/09/15 00:10:07;;;;;;;3.92;1.65;;;11.70;99.90;;;;;;5105730;28;20562;-81
2023/09/15 00:12:36;;;;;;;3.22;1.67;;;11.70;99.90;;;;;;5105819;28;20160;-83
2023/09/15 00:15:10;;;;;;;3.17;1.70;;;11.60;99.90;;;;;;5102807;27;20039;-81
2023/09/15 00:17:36;;;;;;;10.38;1.67;;;11.50;99.90;;;;;;5100763;28;20046;-81
2023/09/15 00:20:13;;;;;;;2.50;1.52;;;11.50;99.90;;;;;;5104350;28;20043;-83
2023/09/15 00:22:52;;;;;;;5.97;1.73;;;11.40;99.90;;;;;;5101349;28;20053;-81
2023/09/15 00:25:19;;;;;;;3.13;1.88;;;11.40;99.90;;;;;;5105796;28;20047;-81
2023/09/15 00:27:50;;;;;;;2.10;1.55;;;11.30;99.90;;;;;;5101968;28;20026;-83
2023/09/15 00:30:17;;;;;;;2.67;1.63;;;11.30;99.90;;;;;;5104371;28;20406;-81
2023/09/15 00:32:43;;;;;;;6.05;1.80;;;11.30;99.90;;;;;;5103904;28;20023;-81
2023/09/15 00:35:09;;;;;;;7.20;2.70;;;11.20;99.90;;;;;;5104303;28;20028;-81
2023/09/15 00:37:35;;;;;;;2.75;1.65;;;11.20;99.90;;;;;;5099838;28;20056;-81
2023/09/15 00:40:01;;;;;;;1.92;1.23;;;11.10;99.90;;;;;;5104248;28;20338;-81
2023/09/15 00:42:26;;;;;;;2.17;1.40;;;11.10;99.90;;;;;;5101463;28;20039;-81
2023/09/15 00:44:52;;;;;;;6.32;1.98;;;11.20;99.90;;;;;;5087725;28;20096;-81
2023/09/15 00:47:21;;;;;;;2.55;1.75;;;11.20;99.90;;;;;;5105900;28;20532;-83
2023/09/15 00:49:48;;;;;;;3.30;1.48;;;11.20;99.90;;;;;;5103959;27;20020;-81
2023/09/15 00:52:17;;;;;;;4.00;1.65;;;11.20;99.90;;;;;;5104780;28;20023;-84
2023/09/15 00:54:44;;;;;;;2.75;1.52;;;11.20;99.90;;;;;;5104481;28;20380;-82
2023/09/15 00:57:09;;;;;;;2.08;1.33;;;11.10;99.90;;;;;;5104625;28;20026;-81
2023/09/15 00:59:36;;;;;;;2.58;1.70;;;11.10;99.90;;;;;;5104079;28;20019;-81
2023/09/15 01:02:02;;;;;;;3.53;1.80;;;11.20;99.90;;;;;;5103203;28;20384;-81
2023/09/15 01:04:30;;;;;;;2.72;1.40;;;11.10;99.90;;;;;;5100286;27;20240;-81
2023/09/15 01:06:57;;;;;;;6.85;2.17;;;11.10;99.90;;;;;;5104130;28;20035;-81
2023/09/15 01:09:25;;;;;;;2.70;1.60;;;11.10;99.90;;;;;;5104555;28;20072;-83
2023/09/15 01:11:51;;;;;;;5.78;1.35;;;11.00;99.90;;;;;;5099543;28;20536;-81
2023/09/15 01:14:17;;;;;;;4.35;1.35;;;11.00;99.90;;;;;;5084369;28;20372;-81
2023/09/15 01:16:58;;;;;;;5.05;1.90;;;11.00;99.90;;;;;;5103206;28;20027;-82
2023/09/15 01:19:30;;;;;;;5.57;1.77;;;11.00;99.90;;;;;;5099871;28;20032;-81
2023/09/15 01:22:36;;;;;;;7.95;2.10;;;11.00;99.90;;;;;;5098497;27;20040;-81
2023/09/15 01:25:12;;;;;;;7.60;2.30;;;10.90;99.90;;;;;;5102103;28;20027;-81
2023/09/15 01:28:07;;;;;;;4.55;1.70;;;10.90;99.90;;;;;;5097020;28;20281;-81
2023/09/15 01:30:37;;;;;;;3.58;2.05;;;10.90;99.90;;;;;;5100285;27;20024;-83
2023/09/15 01:33:09;;;;;;;3.75;2.00;;;10.80;99.90;;;;;;5100624;28;20034;-83
2023/09/15 01:35:35;;;;;;;4.40;1.80;;;10.80;99.90;;;;;;5102610;28;20036;-81
2023/09/15 01:38:00;;;;;;;5.20;1.90;;;10.80;99.90;;;;;;5086911;28;20027;-81
2023/09/15 01:40:26;;;;;;;3.85;1.80;;;10.70;99.90;;;;;;5101588;28;20030;-81
2023/09/15 01:42:54;;;;;;;6.50;2.03;;;10.70;99.90;;;;;;5101946;28;20035;-81
2023/09/15 01:45:21;;;;;;;8.43;2.00;;;10.70;99.90;;;;;;5099480;28;20247;-83
2023/09/15 01:47:48;;;;;;;7.45;2.65;;;10.70;99.90;;;;;;5104273;28;20434;-80
2023/09/15 01:50:15;;;;;;;8.93;2.53;;;10.60;99.90;;;;;;5102737;27;20463;-83
2023/09/15 01:52:42;;;;;;;6.93;2.47;;;10.60;99.90;;;;;;5100711;28;20028;-81
2023/09/15 01:55:09;;;;;;;3.25;1.98;;;10.60;99.90;;;;;;5097808;28;20023;-81
2023/09/15 01:57:35;;;;;;;9.38;2.15;;;10.60;99.90;;;;;;5100534;28;20345;-82
2023/09/15 02:00:01;;;;;;;4.72;2.60;;;10.60;99.90;;;;;;5102550;28;20027;-81
2023/09/15 02:02:26;;;;;;;8.32;2.38;;;10.60;99.90;;;;;;5084553;28;20057;-81
2023/09/15 02:04:52;;;;;;;9.07;2.50;;;10.60;99.90;;;;;;5103520;27;20028;-81
2023/09/15 02:07:18;;;;;;;7.13;2.40;;;10.50;99.90;;;;;;5103102;28;20027;-81
2023/09/15 02:09:44;;;;;;;7.75;2.35;;;10.50;99.90;;;;;;5102245;28;20429;-81
2023/09/15 02:12:10;;;;;;;5.63;1.95;;;10.50;99.90;;;;;;5105292;28;20028;-81
2023/09/15 02:14:36;;;;;;;4.38;2.28;;;10.50;99.90;;;;;;5101880;28;20023;-81
2023/09/15 02:17:02;;;;;;;5.25;1.92;;;10.50;99.90;;;;;;5101996;28;20027;-81
2023/09/15 02:19:29;;;;;;;6.22;2.50;;;10.50;99.90;;;;;;5102667;28;20472;-82
2023/09/15 02:21:54;;;;;;;4.75;2.40;;;10.50;99.90;;;;;;5093916;28;20074;-82
2023/09/15 02:24:20;;;;;;;5.55;2.25;;;10.50;99.90;;;;;;5102632;28;20020;-81
2023/09/15 02:26:45;;;;;;;5.97;2.30;;;10.50;99.90;;;;;;5104083;28;20368;-81
2023/09/15 02:29:11;;;;;;;4.53;2.05;;;10.50;99.90;;;;;;5102004;28;20027;-81
2023/09/15 02:31:38;;;;;;;4.72;1.83;;;10.50;99.90;;;;;;5097947;28;20477;-81
2023/09/15 02:34:04;;;;;;;2.75;1.80;;;10.50;99.90;;;;;;5103538;28;20043;-81
2023/09/15 02:36:29;;;;;;;8.93;2.80;;;10.50;99.90;;;;;;5102455;28;20020;-81
2023/09/15 02:38:55;;;;;;;6.57;2.08;;;10.40;99.90;;;;;;5099799;28;20047;-81
2023/09/15 02:41:21;;;;;;;15.43;2.50;;;10.40;99.90;;;;;;5100746;28;20020;-81
2023/09/15 02:43:50;;;;;;;5.50;2.55;;;10.50;99.90;;;;;;5098712;28;20012;-81
2023/09/15 02:46:16;;;;;;;4.63;1.73;;;10.40;99.90;;;;;;5095787;28;20016;-81
2023/09/15 02:48:42;;;;;;;3.85;2.40;;;10.40;99.90;;;;;;5094862;28;20012;-82
2023/09/15 02:51:08;;;;;;;6.03;2.22;;;10.40;99.90;;;;;;5099963;28;20107;-81
2023/09/15 02:53:36;;;;;;;5.55;2.13;;;10.40;99.90;;;;;;5103854;28;20197;-83
2023/09/15 02:56:04;;;;;;;8.93;2.50;;;10.40;99.90;;;;;;5102037;28;20361;-81
2023/09/15 02:58:31;;;;;;;9.05;2.42;;;10.40;99.90;;;;;;5103288;28;20019;-82
2023/09/15 03:01:09;;;;;;;5.00;1.92;;;10.40;99.90;;;;;;5100937;28;20032;-83
2023/09/15 03:03:35;;;;;;;5.63;2.63;;;10.40;99.90;;;;;;5093353;28;20381;-81
2023/09/15 03:06:05;;;;;;;8.43;2.67;;;10.40;99.90;;;;;;5104443;28;20028;-81
2023/09/15 03:08:30;;;;;;;8.73;2.10;;;10.40;99.90;;;;;;5100188;28;20032;-82
2023/09/15 03:10:56;;;;;;;7.10;2.72;;;10.40;99.90;;;;;;5102900;28;20023;-81
2023/09/15 03:13:23;;;;;;;5.18;2.47;;;10.30;99.90;;;;;;5101174;28;20023;-81
2023/09/15 03:15:48;;;;;;;4.53;2.50;;;10.30;99.90;;;;;;5102555;28;20065;-80
2023/09/15 03:18:14;;;;;;;5.90;2.42;;;10.20;99.90;;;;;;5095325;28;20138;-82
2023/09/15 03:20:39;;;;;;;4.20;2.47;;;10.20;99.90;;;;;;5100279;28;20073;-81
2023/09/15 03:23:05;;;;;;;7.13;2.85;;;10.20;99.90;;;;;;5093252;28;20389;-81
2023/09/15 03:25:31;;;;;;;4.72;2.63;;;10.30;99.90;;;;;;5093942;28;20019;-81
2023/09/15 03:27:56;;;;;;;13.38;2.38;;;10.20;99.90;;;;;;5093270;28;20067;-80
2023/09/15 03:30:23;;;;;;;7.57;2.70;;;10.20;99.90;;;;;;5100084;28;20099;-81
2023/09/15 03:32:49;;;;;;;7.50;2.60;;;10.20;99.90;;;;;;5093327;28;20032;-83
2023/09/15 03:35:14;;;;;;;7.28;3.17;;;10.20;99.90;;;;;;5097967;28;20384;-82
2023/09/15 03:37:41;;;;;;;6.53;3.50;;;10.20;99.90;;;;;;5097155;28;20059;-82
2023/09/15 03:40:08;;;;;;;9.85;2.97;;;10.20;99.90;;;;;;5100498;28;20077;-82
2023/09/15 03:42:35;;;;;;;3.33;2.17;;;10.20;99.90;;;;;;5099556;28;20032;-80
2023/09/15 03:45:00;;;;;;;7.13;2.33;;;10.20;99.90;;;;;;5106548;28;20073;-80
2023/09/15 03:47:26;;;;;;;5.63;2.35;;;10.20;99.90;;;;;;5109352;28;20024;-80
2023/09/15 03:49:51;;;;;;;4.22;2.13;;;10.20;99.90;;;;;;5104847;28;20068;-81
2023/09/15 03:52:17;;;;;;;5.90;2.60;;;10.20;99.90;;;;;;5106030;28;20024;-82
2023/09/15 03:54:46;;;;;;;5.05;2.72;;;10.20;99.90;;;;;;5106289;28;20080;-83
2023/09/15 03:57:12;;;;;;;6.25;2.53;;;10.20;99.90;;;;;;5106835;28;20024;-81
2023/09/15 03:59:38;;;;;;;8.75;2.90;;;10.20;99.90;;;;;;5105905;28;20023;-81
2023/09/15 04:02:04;;;;;;;4.72;2.38;;;10.20;99.90;;;;;;5109450;28;20023;-83
2023/09/15 04:04:30;;;;;;;7.28;2.67;;;10.20;99.90;;;;;;5109113;28;20027;-80
2023/09/15 04:06:55;;;;;;;9.23;2.95;;;10.30;99.90;;;;;;5107669;28;20059;-80
2023/09/15 04:09:24;;;;;;;11.15;4.20;;;10.30;99.90;;;;;;5107091;28;20469;-80
2023/09/15 04:11:59;;;;;;;9.27;3.00;;;10.30;99.90;;;;;;5108099;28;20027;-80
2023/09/15 04:14:24;;;;;;;8.80;3.10;;;10.30;99.90;;;;;;5108322;28;20036;-80
2023/09/15 04:16:50;;;;;;;5.18;2.67;;;10.20;99.90;;;;;;5104260;28;20273;-81
2023/09/15 04:19:15;;;;;;;10.55;3.08;;;10.20;99.90;;;;;;5104826;28;20046;-81
2023/09/15 04:21:42;;;;;;;9.90;2.88;;;10.20;99.90;;;;;;5097019;28;20043;-83
2023/09/15 04:24:08;;;;;;;5.47;3.00;;;10.20;99.90;;;;;;5105057;28;20019;-82
2023/09/15 04:26:36;;;;;;;10.38;3.20;;;10.20;99.90;;;;;;5102124;28;20422;-84
2023/09/15 04:29:02;;;;;;;9.10;3.10;;;10.20;99.90;;;;;;5108382;28;20031;-83
2023/09/15 04:31:29;;;;;;;4.63;2.55;;;10.20;99.90;;;;;;5107695;28;20023;-82
2023/09/15 04:33:54;;;;;;;4.75;2.47;;;10.20;99.90;;;;;;5106401;28;20490;-82
2023/09/15 04:36:20;;;;;;;5.22;2.78;;;10.20;99.90;;;;;;5101930;28;20028;-82
2023/09/15 04:38:45;;;;;;;9.18;3.03;;;10.20;99.90;;;;;;5104478;28;20028;-83
2023/09/15 04:41:11;;;;;;;5.45;2.90;;;10.20;99.90;;;;;;5097385;28;20032;-83
2023/09/15 04:43:37;;;;;;;10.45;2.65;;;10.20;99.90;;;;;;5100786;28;20036;-84
2023/09/15 04:46:17;;;;;;;7.65;2.72;;;10.20;99.90;;;;;;5103814;28;20069;-83
2023/09/15 04:48:42;;;;;;;8.90;3.08;;;10.10;99.90;;;;;;5098751;28;20333;-84
2023/09/15 04:51:11;;;;;;;13.75;3.47;;;10.10;99.90;;;;;;5098003;28;20448;-85
2023/09/15 04:53:37;;;;;;;5.85;3.25;;;10.00;99.90;;;;;;5104589;28;20039;-83
2023/09/15 04:56:03;;;;;;;6.03;2.70;;;10.00;99.90;;;;;;5105470;28;20059;-83
2023/09/15 04:58:29;;;;;;;7.45;2.80;;;10.00;99.90;;;;;;5105760;27;20041;-84
2023/09/15 05:01:03;;;;;;;13.18;4.03;;;10.00;99.90;;;;;;5104596;28;20032;-83
2023/09/15 05:03:29;;;;;;;13.65;3.80;;;10.00;99.90;;;;;;5103451;28;20062;-84
2023/09/15 05:05:55;;;;;;;10.05;3.22;;;10.00;99.90;;;;;;5101754;28;20028;-84
2023/09/15 05:08:21;;;;;;;12.13;3.42;;;9.90;99.90;;;;;;5102942;28;20026;-83
2023/09/15 05:10:47;;;;;;;7.95;3.38;;;10.00;99.90;;;;;;5100554;28;20369;-83
2023/09/15 05:13:14;;;;;;;9.48;3.63;;;9.90;99.90;;;;;;5100436;28;20369;-84
2023/09/15 05:15:39;;;;;;;6.88;3.15;;;9.90;99.90;;;;;;5105078;28;20246;-83
2023/09/15 05:18:05;;;;;;;7.80;3.30;;;10.00;99.90;;;;;;5103121;28;20095;-83
2023/09/15 05:20:33;;;;;;;11.07;3.72;;;10.00;99.90;;;;;;5102640;28;20075;-85
2023/09/15 05:22:59;;;;;;;7.38;2.92;;;10.00;99.90;;;;;;5099390;28;20080;-83
2023/09/15 05:25:25;;;;;;;5.70;3.63;;;10.10;99.90;;;;;;5103116;28;20050;-83
2023/09/15 05:27:51;;;;;;;7.72;3.15;;;10.10;99.90;;;;;;5103434;28;20031;-83
2023/09/15 05:30:16;;;;;;;7.47;2.92;;;10.10;99.90;;;;;;5101997;28;20027;-82
2023/09/15 05:32:42;;;;;;;5.80;3.17;;;10.10;99.90;;;;;;5103219;28;20364;-83
2023/09/15 05:35:09;;;;;;;13.30;4.35;;;10.10;99.90;;;;;;5100223;28;20028;-83
2023/09/15 05:37:35;;;;;;;10.25;3.35;;;10.20;99.90;;;;;;5097031;27;20036;-82
2023/09/15 05:40:01;;;;;;;10.27;4.20;;;10.20;99.90;;;;;;5097226;28;20024;-83
2023/09/15 05:42:26;;;;;;;9.35;4.15;;;10.20;99.90;;;;;;5102485;28;20031;-83
2023/09/15 05:44:54;;;;;;;6.97;3.40;;;10.20;99.90;;;;;;5097411;27;20020;-82
2023/09/15 05:47:26;;;;;;;13.93;4.13;;;10.30;99.90;;;;;;5101918;28;20472;-83
2023/09/15 05:49:52;;;;;;;6.90;3.47;;;10.30;99.90;;;;;;5096166;28;20031;-83
2023/09/15 05:52:19;;;;;;;22.73;5.25;;;10.40;99.90;;;;;;5102008;28;20042;-85
2023/09/15 05:54:44;;;;;;;11.20;4.60;;;10.40;99.90;;;;;;5100024;28;20047;-83
2023/09/15 05:57:10;;;;;;;10.10;4.78;;;10.50;99.90;;;;;;5097488;28;20038;-83
2023/09/15 05:59:35;;;;;;;13.05;4.90;;;10.50;99.90;;;;;;5100591;28;20372;-83
2023/09/15 06:02:01;;;;;;;9.23;4.65;;;10.60;99.90;;;;;;5103829;28;20365;-83
2023/09/15 06:04:28;;;;;;;11.00;4.78;;;10.60;99.90;;;;;;5103770;28;20027;-84
2023/09/15 06:06:54;;;;;;;11.07;4.95;;;10.60;99.90;;;;;;5089502;28;20050;-83
2023/09/15 06:09:19;;;;;;;7.07;3.92;;;10.80;99.90;;;;;;5102663;28;20020;-83
2023/09/15 06:11:45;;;;;;;13.10;4.53;;;10.90;99.90;;;;;;5101327;28;20372;-83
2023/09/15 06:14:10;;;;;;;13.15;4.15;;;10.90;99.90;;;;;;5101961;28;20406;-83
2023/09/15 06:16:36;;;;;;;12.82;5.28;;;11.00;99.90;;;;;;5102649;28;20094;-83
2023/09/15 06:19:02;;;;;;;11.00;5.25;;;11.10;99.90;;;;;;5104701;28;20356;-83
2023/09/15 06:21:28;;;;;;;14.63;6.53;;;11.20;99.90;;;;;;5099576;28;20067;-84
2023/09/15 06:23:55;;;;;;;20.65;8.10;;;11.30;99.90;;;;;;5102784;28;20032;-83
2023/09/15 06:26:21;;;;;;;17.45;8.65;;;11.40;99.90;;;;;;5102409;28;20084;-83
2023/09/15 06:28:47;;;;;;;13.05;7.50;;;11.50;99.90;;;;;;5101280;28;20015;-81
2023/09/15 06:31:12;;;;;;;19.08;8.40;;;11.60;99.90;;;;;;5101369;28;20027;-82
2023/09/15 06:33:38;;;;;;;19.02;7.47;;;11.70;99.90;;;;;;5103209;28;20430;-81
2023/09/15 06:36:04;;;;;;;28.38;7.38;;;11.70;99.90;;;;;;5104998;28;20020;-83
2023/09/15 06:38:31;;;;;;;15.20;6.13;;;11.90;99.90;;;;;;5102148;28;20399;-81
2023/09/15 06:40:57;;;;;;;12.20;5.40;;;12.10;99.90;;;;;;5101246;28;20031;-81
2023/09/15 06:43:24;;;;;;;14.02;5.38;;;12.20;99.90;;;;;;5101782;28;20032;-83
2023/09/15 06:45:50;;;;;;;12.82;5.70;;;12.40;99.90;;;;;;5104012;28;20023;-84
2023/09/15 06:48:15;;;;;;;17.23;5.40;;;12.60;99.90;;;;;;5105531;28;20464;-81
2023/09/15 06:50:41;;;;;;;9.80;4.85;;;12.80;99.90;;;;;;5102635;28;20027;-81
2023/09/15 06:53:06;;;;;;;14.05;4.72;;;12.90;99.90;;;;;;5100764;28;20023;-81
2023/09/15 06:55:33;;;;;;;12.27;4.38;;;13.10;99.90;;;;;;5101325;28;20764;-82
2023/09/15 06:58:01;;;;;;;13.23;5.97;;;13.30;99.90;;;;;;5101821;28;20469;-85
2023/09/15 07:00:27;;;;;;;14.20;4.32;;;13.40;99.90;;;;;;5104719;28;20023;-81
2023/09/15 07:02:52;;;;;;;17.15;5.10;;;13.50;99.90;;;;;;5104122;28;20035;-81
2023/09/15 07:05:18;;;;;;;12.15;4.70;;;13.60;99.90;;;;;;5103810;28;20612;-81
2023/09/15 07:07:43;;;;;;;8.38;3.75;;;13.80;99.90;;;;;;5101130;28;20330;-81
2023/09/15 07:10:09;;;;;;;12.50;4.00;;;13.80;99.90;;;;;;5102533;28;20111;-80
2023/09/15 07:12:35;;;;;;;12.85;4.53;;;13.80;99.90;;;;;;5084840;28;20501;-81
2023/09/15 07:15:03;;;;;;;9.43;3.58;;;13.70;99.90;;;;;;5104866;28;20051;-81
2023/09/15 07:17:29;;;;;;;7.75;3.35;;;13.70;99.90;;;;;;5089440;28;20418;-82
2023/09/15 07:19:55;;;;;;;9.32;3.00;;;13.60;99.90;;;;;;5106309;28;20015;-82
2023/09/15 07:22:20;;;;;;;14.05;4.00;;;13.50;99.90;;;;;;5103332;28;20126;-81
2023/09/15 07:24:46;;;;;;;6.78;3.33;;;13.50;99.90;;;;;;5105716;28;20039;-82
2023/09/15 07:27:11;;;;;;;6.75;3.38;;;13.50;99.90;;;;;;5105291;28;20044;-82
2023/09/15 07:29:38;;;;;;;18.00;4.35;;;13.60;99.90;;;;;;5108474;28;20106;-81
2023/09/15 07:32:04;;;;;;;11.88;4.10;;;13.60;99.90;;;;;;5107699;28;20023;-81
2023/09/15 07:34:30;;;;;;;21.70;9.65;;;13.70;99.90;;;;;;5105661;28;20020;-81
2023/09/15 07:36:56;;;;;;;17.10;9.38;;;13.70;99.90;;;;;;5104815;28;20089;-81
2023/09/15 07:39:22;;;;;;;13.77;7.50;;;13.80;99.90;;;;;;5104739;28;20458;-81
2023/09/15 07:41:47;;;;;;;14.85;4.90;;;13.80;99.90;;;;;;5102236;28;20280;-81
2023/09/15 07:44:17;;;;;;;7.43;4.40;;;13.90;99.90;;;;;;5107560;28;20008;-84
2023/09/15 07:46:43;;;;;;;8.10;3.83;;;14.10;99.90;;;;;;5101291;28;20083;-81
2023/09/15 07:49:09;;;;;;;13.95;4.22;;;14.20;99.90;;;;;;5108644;28;20456;-80
2023/09/15 07:51:35;;;;;;;16.30;4.05;;;14.40;99.90;;;;;;5104885;28;20016;-79
2023/09/15 07:54:01;;;;;;;9.65;4.30;;;14.60;99.90;;;;;;5104264;28;20118;-82
2023/09/15 07:56:27;;;;;;;8.73;4.40;;;14.70;99.90;;;;;;5105213;28;20473;-81
2023/09/15 07:58:55;;;;;;;8.95;4.40;;;14.80;99.90;;;;;;5100484;28;20428;-84
2023/09/15 08:01:21;;;;;;;6.47;3.78;;;14.90;99.90;;;;;;5104340;28;20035;-82
2023/09/15 08:03:46;;;;;;;11.85;4.43;;;15.00;99.90;;;;;;5105798;28;20040;-81
2023/09/15 08:06:13;;;;;;;14.77;5.18;;;15.10;99.90;;;;;;5107464;28;20456;-81
2023/09/15 08:08:39;;;;;;;5.20;3.58;;;15.10;99.90;;;;;;5104564;28;20050;-81
2023/09/15 08:11:04;;;;;;;9.18;3.58;;;15.20;99.90;;;;;;5103816;28;20027;-82
2023/09/15 08:13:30;;;;;;;11.75;3.75;;;15.30;99.90;;;;;;5087020;28;20012;-82
2023/09/15 08:15:56;;;;;;;7.15;3.58;;;15.30;99.90;;;;;;5103607;28;20023;-81
2023/09/15 08:18:22;;;;;;;7.93;4.20;;;15.50;99.90;;;;;;5086964;28;20023;-81
2023/09/15 08:20:48;;;;;;;7.97;3.70;;;15.50;99.90;;;;;;5101441;28;20064;-85
2023/09/15 08:23:14;;;;;;;11.00;4.15;;;15.50;99.90;;;;;;5102937;28;20649;-83
2023/09/15 08:25:41;;;;;;;10.75;4.22;;;15.60;99.90;;;;;;5101749;28;20027;-82
2023/09/15 08:28:07;;;;;;;8.23;4.25;;;15.70;99.90;;;;;;5101387;27;20551;-82
2023/09/15 08:30:33;;;;;;;10.35;3.90;;;15.70;99.90;;;;;;5101349;28;20484;-81
2023/09/15 08:33:00;;;;;;;8.77;4.43;;;15.70;99.90;;;;;;5097725;27;20059;-83
2023/09/15 08:35:26;;;;;;;6.18;3.90;;;15.80;99.90;;;;;;5103099;27;20097;-82
2023/09/15 08:37:52;;;;;;;4.75;3.53;;;15.80;99.90;;;;;;5104435;27;20019;-81
2023/09/15 08:40:19;;;;;;;5.70;3.47;;;15.70;99.90;;;;;;5104441;27;20056;-81
2023/09/15 08:42:45;;;;;;;11.18;3.80;;;15.90;99.90;;;;;;5104750;28;20031;-82
2023/09/15 08:45:11;;;;;;;10.32;3.92;;;15.90;99.90;;;;;;5105991;28;20023;-82
2023/09/15 08:47:41;;;;;;;9.95;3.78;;;15.90;99.90;;;;;;5104316;28;20023;-81
2023/09/15 08:50:08;;;;;;;9.60;4.00;;;16.00;99.90;;;;;;5099371;27;20020;-82
2023/09/15 08:52:35;;;;;;;7.45;3.60;;;16.10;99.90;;;;;;5102781;28;20023;-81
2023/09/15 08:55:02;;;;;;;8.27;4.30;;;16.10;99.90;;;;;;5102718;28;20028;-81
2023/09/15 08:57:30;;;;;;;6.63;4.03;;;16.20;99.90;;;;;;5100811;27;20069;-81
2023/09/15 08:59:57;;;;;;;7.53;4.07;;;16.30;99.90;;;;;;5105700;28;20111;-82
2023/09/15 09:02:25;;;;;;;6.57;3.53;;;16.40;99.90;;;;;;5097308;28;20385;-81
2023/09/15 09:04:51;;;;;;;9.95;4.07;;;16.50;99.90;;;;;;5097634;27;20030;-81
2023/09/15 09:07:18;;;;;;;5.28;3.22;;;16.60;99.90;;;;;;5106491;28;20531;-82
2023/09/15 09:09:45;;;;;;;12.02;3.70;;;16.70;99.90;;;;;;5106042;28;20082;-83
2023/09/15 09:12:11;;;;;;;8.20;3.92;;;16.70;99.90;;;;;;5105499;28;20027;-82
2023/09/15 09:14:36;;;;;;;7.43;4.13;;;16.80;99.90;;;;;;5103252;28;20042;-80
2023/09/15 09:17:03;;;;;;;5.82;3.03;;;16.80;99.90;;;;;;5102279;28;20051;-81
2023/09/15 09:19:42;;;;;;;9.38;4.15;;;16.90;99.90;;;;;;5102856;28;20344;-82
2023/09/15 09:22:15;;;;;;;8.35;3.70;;;16.90;99.90;;;;;;5098507;28;20682;-84
2023/09/15 09:24:40;;;;;;;7.97;4.18;;;17.00;99.90;;;;;;5104010;28;20028;-82
2023/09/15 09:27:11;;;;;;;4.65;3.50;;;17.10;99.90;;;;;;5106318;28;20060;-82
2023/09/15 09:29:37;;;;;;;6.32;3.70;;;17.10;99.90;;;;;;5084762;28;20115;-81
2023/09/15 09:32:04;;;;;;;8.68;3.85;;;17.10;99.90;;;;;;5100834;28;20038;-81
2023/09/15 09:34:30;;;;;;;15.32;4.03;;;17.20;99.90;;;;;;5102286;28;20070;-84
2023/09/15 09:36:56;;;;;;;6.53;3.97;;;17.20;99.90;;;;;;5104509;28;20110;-82
2023/09/15 09:39:21;;;;;;;5.70;3.22;;;17.30;99.90;;;;;;5104289;28;20103;-80
2023/09/15 09:41:47;;;;;;;5.85;3.75;;;17.40;99.90;;;;;;5104686;28;20100;-80
2023/09/15 09:44:13;;;;;;;6.18;3.83;;;17.50;99.90;;;;;;5103838;28;20016;-83
2023/09/15 09:46:42;;;;;;;10.13;4.07;;;17.50;99.90;;;;;;5095556;28;20027;-82
2023/09/15 09:49:08;;;;;;;5.35;3.42;;;17.60;99.90;;;;;;5103285;28;20026;-81
2023/09/15 09:51:38;;;;;;;8.52;3.88;;;17.60;99.90;;;;;;5104017;28;20019;-81
2023/09/15 09:54:06;;;;;;;8.63;3.60;;;17.70;99.90;;;;;;5083422;28;20039;-82
2023/09/15 09:56:36;;;;;;;5.50;3.63;;;17.80;99.90;;;;;;5095092;27;20022;-84
2023/09/15 09:59:11;;;;;;;4.50;3.30;;;17.80;99.90;;;;;;5099523;28;20114;-82
2023/09/15 10:01:37;;;;;;;5.75;3.88;;;17.80;99.90;;;;;;5101698;28;20023;-81
2023/09/15 10:04:06;;;;;;;5.38;3.53;;;17.90;99.90;;;;;;5099334;28;20036;-81
2023/09/15 10:06:36;;;;;;;6.55;3.45;;;17.90;99.90;;;;;;5094425;28;20026;-81
2023/09/15 10:09:05;;;;;;;6.53;3.70;;;18.00;99.90;;;;;;5098676;28;20170;-81
2023/09/15 10:11:34;;;;;;;14.40;6.65;;;18.00;99.90;;;;;;5095170;28;20115;-81
2023/09/15 10:14:04;;;;;;;11.05;7.10;;;18.00;99.90;;;;;;5097502;28;20469;-81
2023/09/15 10:16:32;;;;;;;9.85;5.80;;;18.10;99.90;;;;;;5098742;28;20563;-83
2023/09/15 10:18:59;;;;;;;13.70;6.38;;;18.10;99.90;;;;;;5100869;28;20108;-81
2023/09/15 10:21:26;;;;;;;9.35;4.82;;;18.10;99.90;;;;;;5098271;28;20168;-81
2023/09/15 10:24:15;;;;;;;13.07;5.68;;;18.20;99.90;;;;;;5096746;28;20054;-81
2023/09/15 10:26:41;;;;;;;7.75;4.55;;;18.20;99.90;;;;;;5096776;28;20024;-81
2023/09/15 10:29:10;;;;;;;7.18;3.78;;;18.30;99.90;;;;;;5101519;27;20073;-81
2023/09/15 10:31:35;;;;;;;9.05;4.60;;;18.40;99.90;;;;;;5098999;28;20031;-81
2023/09/15 10:34:04;;;;;;;7.57;4.68;;;18.50;99.90;;;;;;5099491;28;20030;-82
2023/09/15 10:36:32;;;;;;;7.05;3.92;;;18.50;99.90;;;;;;5083382;28;20028;-82
2023/09/15 10:38:58;;;;;;;8.38;3.40;;;18.60;99.90;;;;;;5101385;28;20465;-80
2023/09/15 10:41:30;;;;;;;7.80;3.08;;;18.60;99.90;;;;;;5097493;28;20410;-84
2023/09/15 10:43:56;;;;;;;6.65;3.58;;;18.60;99.90;;;;;;5098490;28;20311;-81
2023/09/15 10:46:34;;;;;;;6.00;3.20;;;18.60;99.90;;;;;;5104031;28;20032;-82
2023/09/15 10:49:11;;;;;;;6.35;2.97;;;18.70;99.90;;;;;;5091845;28;20092;-81
2023/09/15 10:51:39;;;;;;;5.32;3.00;;;18.70;99.90;;;;;;5103589;28;20104;-81
2023/09/15 10:54:05;;;;;;;5.00;3.53;;;18.90;99.90;;;;;;5104479;28;20023;-80
2023/09/15 10:56:32;;;;;;;5.30;3.58;;;18.90;99.90;;;;;;5102842;28;20026;-81
2023/09/15 10:58:58;;;;;;;6.35;3.40;;;18.90;99.90;;;;;;5082645;28;20047;-80
2023/09/15 11:01:25;;;;;;;6.93;4.07;;;19.00;99.90;;;;;;5104844;28;20066;-84
2023/09/15 11:03:52;;;;;;;9.32;4.57;;;19.00;99.90;;;;;;5102105;28;20027;-80
2023/09/15 11:06:18;;;;;;;10.30;5.15;;;19.10;99.90;;;;;;5102401;28;20016;-83
2023/09/15 11:08:44;;;;;;;11.43;4.70;;;19.10;99.90;;;;;;5104168;28;20019;-82
2023/09/15 11:11:10;;;;;;;5.25;3.55;;;19.10;99.90;;;;;;5102895;27;20022;-81
2023/09/15 11:13:40;;;;;;;7.22;3.08;;;19.10;99.90;;;;;;5099770;28;20026;-82
2023/09/15 11:16:07;;;;;;;6.70;3.60;;;19.20;99.90;;;;;;5086219;28;20355;-80
2023/09/15 11:18:34;;;;;;;10.77;5.80;;;19.30;99.90;;;;;;5103769;28;20012;-81
2023/09/15 11:21:01;;;;;;;6.90;4.38;;;19.40;99.90;;;;;;5095081;27;20044;-83
2023/09/15 11:23:28;;;;;;;12.13;5.25;;;19.40;99.90;;;;;;5107036;28;20069;-81
2023/09/15 11:26:01;;;;;;;12.18;3.97;;;19.40;99.90;;;;;;5109104;27;20020;-81
2023/09/15 11:28:28;;;;;;;6.13;3.53;;;19.40;99.90;;;;;;5109695;28;20049;-80
2023/09/15 11:30:55;;;;;;;8.18;3.20;;;19.40;99.90;;;;;;5107431;28;20027;-82
2023/09/15 11:33:22;;;;;;;13.10;3.95;;;19.40;99.90;;;;;;5103954;28;20039;-83
2023/09/15 11:35:49;;;;;;;7.15;3.58;;;19.40;99.90;;;;;;5105943;28;20027;-81
2023/09/15 11:38:15;;;;;;;6.38;3.58;;;19.40;99.90;;;;;;5108409;28;20031;-81
2023/09/15 11:40:48;;;;;;;7.47;3.25;;;19.50;99.90;;;;;;5106712;28;20031;-82
2023/09/15 11:43:14;;;;;;;7.60;3.67;;;19.50;99.90;;;;;;5102019;27;20059;-84
2023/09/15 11:45:42;;;;;;;6.45;3.25;;;19.60;99.90;;;;;;5107688;28;20019;-80
2023/09/15 11:48:10;;;;;;;5.32;3.28;;;19.60;99.90;;;;;;5106640;28;20036;-81
2023/09/15 11:50:36;;;;;;;8.82;4.47;;;19.70;99.90;;;;;;5108099;28;20043;-83
2023/09/15 11:53:02;;;;;;;7.38;3.55;;;19.70;99.90;;;;;;5102446;27;20055;-83
2023/09/15 11:55:28;;;;;;;9.75;3.47;;;19.70;99.90;;;;;;5104205;27;20520;-83
2023/09/15 11:57:56;;;;;;;4.68;3.38;;;19.70;99.90;;;;;;5107109;27;21326;-83
2023/09/15 12:00:24;;;;;;;6.32;3.38;;;19.80;99.90;;;;;;5105119;28;20128;-82
2023/09/15 12:02:52;;;;;;;8.80;3.22;;;19.80;99.90;;;;;;5102181;27;20046;-82
2023/09/15 12:05:20;;;;;;;8.27;3.30;;;19.90;99.90;;;;;;5085315;28;20028;-82
2023/09/15 12:07:47;;;;;;;11.25;3.53;;;19.90;99.90;;;;;;5099830;28;20031;-84
2023/09/15 12:10:18;;;;;;;8.15;2.90;;;19.90;99.90;;;;;;5102593;28;20028;-83
2023/09/15 12:12:47;;;;;;;9.13;2.80;;;20.00;99.90;;;;;;5104510;28;20072;-83
2023/09/15 12:15:17;;;;;;;10.55;4.05;;;20.10;99.90;;;;;;5107012;28;20055;-82
2023/09/15 12:17:47;;;;;;;6.38;3.30;;;20.10;99.90;;;;;;5105097;28;20153;-82
2023/09/15 12:20:14;;;;;;;6.88;3.90;;;20.20;99.90;;;;;;5109801;28;20040;-84
2023/09/15 12:22:41;;;;;;;6.25;3.42;;;20.20;99.90;;;;;;5098949;28;20039;-84
2023/09/15 12:25:14;;;;;;;6.32;2.90;;;20.40;99.90;;;;;;5103394;28;20031;-83
2023/09/15 12:27:40;;;;;;;4.97;2.90;;;20.40;99.90;;;;;;5101977;28;20492;-83
2023/09/15 12:30:06;;;;;;;10.00;3.28;;;20.40;99.90;;;;;;5104536;27;20028;-85
2023/09/15 12:32:34;;;;;;;12.05;3.05;;;20.40;99.90;;;;;;5101210;28;20028;-83
2023/09/15 12:35:03;;;;;;;11.40;3.80;;;20.50;99.90;;;;;;5105326;28;20036;-84
2023/09/15 12:37:32;;;;;;;6.25;2.67;;;20.50;99.90;;;;;;5108435;27;20039;-81
2023/09/15 12:39:58;;;;;;;4.53;3.05;;;20.50;99.90;;;;;;5100643;27;20111;-81
2023/09/15 12:42:26;;;;;;;9.65;3.55;;;20.50;99.90;;;;;;5102373;27;20903;-85